sensor_id;sensor_type;location;lat;lon;timestamp;P1;P2;P0
69350;PMS7003;57106;51.446;-2.606;2022-12-18T00:02:50;20;20;
69350;PMS7003;57106;51.446;-2.606;2022-12-18T00:05:23;29;24;
69350;PMS7003;57106;51.446;-2.606;2022-12-18T00:07:46;24;19;
69350;PMS7003;57106;51.446;-2.606;2022-12-18T00:10:07;29;22;
69350;PMS7003;57106;51.446;-2.606;2022-12-18T00:12:32;29;22;
69350;PMS7003;57106;51.446;-2.606;2022-12-18T00:14:57;24;22;
69350;PMS7003;57106;51.446;-2.606;2022-12-18T00:17:27;22;20;
69350;PMS7003;57106;51.446;-2.606;2022-12-18T00:27:04;26;20;
69350;PMS7003;57106;51.446;-2.606;2022-12-18T00:29:29;23;20;
69350;PMS7003;57106;51.446;-2.606;2022-12-18T00:31:54;19;19;
69350;PMS7003;57106;51.446;-2.606;2022-12-18T00:34:20;21;19;
69350;PMS7003;57106;51.446;-2.606;2022-12-18T00:36:47;19;19;
69350;PMS7003;57106;51.446;-2.606;2022-12-18T00:39:11;24;20;
69350;PMS7003;57106;51.446;-2.606;2022-12-18T00:41:36;22;19;
69350;PMS7003;57106;51.446;-2.606;2022-12-18T00:44:02;21;20;
69350;PMS7003;57106;51.446;-2.606;2022-12-18T00:46:27;21;19;
69350;PMS7003;57106;51.446;-2.606;2022-12-18T00:48:53;20;19;
69350;PMS7003;57106;51.446;-2.606;2022-12-18T00:51:18;25;18;
69350;PMS7003;57106;51.446;-2.606;2022-12-18T00:53:44;22;19;
69350;PMS7003;57106;51.446;-2.606;2022-12-18T00:56:09;17;15;
69350;PMS7003;57106;51.446;-2.606;2022-12-18T00:58:34;21;17;
69350;PMS7003;57106;51.446;-2.606;2022-12-18T01:01:00;20;19;
69350;PMS7003;57106;51.446;-2.606;2022-12-18T01:03:31;20;17;
69350;PMS7003;57106;51.446;-2.606;2022-12-18T01:05:52;17;17;
69350;PMS7003;57106;51.446;-2.606;2022-12-18T01:08:17;17;17;
69350;PMS7003;57106;51.446;-2.606;2022-12-18T01:10:43;17;17;
69350;PMS7003;57106;51.446;-2.606;2022-12-18T01:13:08;19;15;
69350;PMS7003;57106;51.446;-2.606;2022-12-18T01:15:33;21;18;
69350;PMS7003;57106;51.446;-2.606;2022-12-18T01:17:59;14;14;
69350;PMS7003;57106;51.446;-2.606;2022-12-18T01:20:24;18;17;
69350;PMS7003;57106;51.446;-2.606;2022-12-18T01:22:50;18;16;
69350;PMS7003;57106;51.446;-2.606;2022-12-18T01:25:17;22;16;
69350;PMS7003;57106;51.446;-2.606;2022-12-18T01:27:41;17;15;
69350;PMS7003;57106;51.446;-2.606;2022-12-18T01:30:07;21;18;
69350;PMS7003;57106;51.446;-2.606;2022-12-18T01:32:31;18;17;
69350;PMS7003;57106;51.446;-2.606;2022-12-18T01:34:56;17;15;
69350;PMS7003;57106;51.446;-2.606;2022-12-18T01:37:27;20;15;
69350;PMS7003;57106;51.446;-2.606;2022-12-18T01:39:48;22;15;
69350;PMS7003;57106;51.446;-2.606;2022-12-18T01:42:14;18;17;
69350;PMS7003;57106;51.446;-2.606;2022-12-18T01:47:04;15;15;
69350;PMS7003;57106;51.446;-2.606;2022-12-18T01:49:29;23;18;
69350;PMS7003;57106;51.446;-2.606;2022-12-18T01:51:55;18;18;
69350;PMS7003;57106;51.446;-2.606;2022-12-18T01:54:20;15;15;
69350;PMS7003;57106;51.446;-2.606;2022-12-18T01:56:46;19;18;
69350;PMS7003;57106;51.446;-2.606;2022-12-18T01:59:11;20;17;
69350;PMS7003;57106;51.446;-2.606;2022-12-18T02:01:36;24;20;
69350;PMS7003;57106;51.446;-2.606;2022-12-18T02:06:31;17;15;
69350;PMS7003;57106;51.446;-2.606;2022-12-18T02:08:59;18;13;
69350;PMS7003;57106;51.446;-2.606;2022-12-18T02:11:20;15;12;
69350;PMS7003;57106;51.446;-2.606;2022-12-18T02:13:50;14;14;
69350;PMS7003;57106;51.446;-2.606;2022-12-18T02:16:09;19;18;
69350;PMS7003;57106;51.446;-2.606;2022-12-18T02:18:34;18;18;
69350;PMS7003;57106;51.446;-2.606;2022-12-18T02:20:59;15;15;
69350;PMS7003;57106;51.446;-2.606;2022-12-18T02:23:27;21;17;
69350;PMS7003;57106;51.446;-2.606;2022-12-18T02:28:14;19;14;
69350;PMS7003;57106;51.446;-2.606;2022-12-18T02:30:39;14;14;
69350;PMS7003;57106;51.446;-2.606;2022-12-18T02:33:04;16;14;
69350;PMS7003;57106;51.446;-2.606;2022-12-18T02:35:30;18;15;
69350;PMS7003;57106;51.446;-2.606;2022-12-18T02:37:55;14;13;
69350;PMS7003;57106;51.446;-2.606;2022-12-18T02:40:22;10;10;
69350;PMS7003;57106;51.446;-2.606;2022-12-18T02:42:47;19;14;
69350;PMS7003;57106;51.446;-2.606;2022-12-18T02:50:15;20;16;
69350;PMS7003;57106;51.446;-2.606;2022-12-18T02:54:57;18;14;
69350;PMS7003;57106;51.446;-2.606;2022-12-18T02:57:21;17;14;
69350;PMS7003;57106;51.446;-2.606;2022-12-18T02:59:47;20;15;
69350;PMS7003;57106;51.446;-2.606;2022-12-18T03:02:12;15;15;
69350;PMS7003;57106;51.446;-2.606;2022-12-18T03:04:37;16;16;
69350;PMS7003;57106;51.446;-2.606;2022-12-18T03:07:02;14;14;
69350;PMS7003;57106;51.446;-2.606;2022-12-18T03:09:28;18;14;
69350;PMS7003;57106;51.446;-2.606;2022-12-18T03:11:53;19;15;
69350;PMS7003;57106;51.446;-2.606;2022-12-18T03:14:17;17;16;
69350;PMS7003;57106;51.446;-2.606;2022-12-18T03:16:42;14;14;
69350;PMS7003;57106;51.446;-2.606;2022-12-18T03:19:08;20;13;
69350;PMS7003;57106;51.446;-2.606;2022-12-18T03:21:33;25;15;
69350;PMS7003;57106;51.446;-2.606;2022-12-18T03:23:58;17;15;
69350;PMS7003;57106;51.446;-2.606;2022-12-18T03:26:24;15;13;
69350;PMS7003;57106;51.446;-2.606;2022-12-18T03:28:51;14;11;
69350;PMS7003;57106;51.446;-2.606;2022-12-18T03:31:21;19;13;
69350;PMS7003;57106;51.446;-2.606;2022-12-18T03:33:41;15;13;
69350;PMS7003;57106;51.446;-2.606;2022-12-18T03:36:06;14;13;
69350;PMS7003;57106;51.446;-2.606;2022-12-18T03:38:31;17;17;
69350;PMS7003;57106;51.446;-2.606;2022-12-18T03:40:59;16;16;
69350;PMS7003;57106;51.446;-2.606;2022-12-18T03:45:50;16;14;
69350;PMS7003;57106;51.446;-2.606;2022-12-18T03:48:15;14;14;
69350;PMS7003;57106;51.446;-2.606;2022-12-18T03:50:41;15;13;
69350;PMS7003;57106;51.446;-2.606;2022-12-18T03:53:07;14;14;
69350;PMS7003;57106;51.446;-2.606;2022-12-18T03:55:30;16;14;
69350;PMS7003;57106;51.446;-2.606;2022-12-18T03:57:56;13;13;
69350;PMS7003;57106;51.446;-2.606;2022-12-18T04:00:21;15;10;
69350;PMS7003;57106;51.446;-2.606;2022-12-18T04:02:48;11;11;
69350;PMS7003;57106;51.446;-2.606;2022-12-18T04:05:12;13;13;
69350;PMS7003;57106;51.446;-2.606;2022-12-18T04:07:38;16;13;
69350;PMS7003;57106;51.446;-2.606;2022-12-18T04:10:04;15;14;
69350;PMS7003;57106;51.446;-2.606;2022-12-18T04:12:29;17;14;
69350;PMS7003;57106;51.446;-2.606;2022-12-18T04:14:55;17;14;
69350;PMS7003;57106;51.446;-2.606;2022-12-18T04:17:22;19;16;
69350;PMS7003;57106;51.446;-2.606;2022-12-18T04:19:45;15;14;
69350;PMS7003;57106;51.446;-2.606;2022-12-18T04:22:11;21;17;
69350;PMS7003;57106;51.446;-2.606;2022-12-18T04:24:37;15;11;
69350;PMS7003;57106;51.446;-2.606;2022-12-18T04:27:03;15;13;
69350;PMS7003;57106;51.446;-2.606;2022-12-18T04:29:28;14;14;
69350;PMS7003;57106;51.446;-2.606;2022-12-18T04:31:53;16;15;
69350;PMS7003;57106;51.446;-2.606;2022-12-18T04:34:19;14;10;
69350;PMS7003;57106;51.446;-2.606;2022-12-18T04:36:45;18;15;
69350;PMS7003;57106;51.446;-2.606;2022-12-18T04:39:09;17;15;
69350;PMS7003;57106;51.446;-2.606;2022-12-18T04:46:26;17;17;
69350;PMS7003;57106;51.446;-2.606;2022-12-18T04:48:52;16;16;
69350;PMS7003;57106;51.446;-2.606;2022-12-18T04:51:18;17;17;
69350;PMS7003;57106;51.446;-2.606;2022-12-18T04:53:43;17;14;
69350;PMS7003;57106;51.446;-2.606;2022-12-18T04:56:10;20;18;
69350;PMS7003;57106;51.446;-2.606;2022-12-18T04:58:34;21;16;
69350;PMS7003;57106;51.446;-2.606;2022-12-18T05:00:59;20;16;
69350;PMS7003;57106;51.446;-2.606;2022-12-18T05:03:25;21;17;
69350;PMS7003;57106;51.446;-2.606;2022-12-18T05:05:50;22;17;
69350;PMS7003;57106;51.446;-2.606;2022-12-18T05:08:16;16;14;
69350;PMS7003;57106;51.446;-2.606;2022-12-18T05:10:41;22;16;
69350;PMS7003;57106;51.446;-2.606;2022-12-18T05:13:07;21;20;
69350;PMS7003;57106;51.446;-2.606;2022-12-18T05:15:32;23;16;
69350;PMS7003;57106;51.446;-2.606;2022-12-18T05:20:23;22;17;
69350;PMS7003;57106;51.446;-2.606;2022-12-18T05:22:49;24;21;
69350;PMS7003;57106;51.446;-2.606;2022-12-18T05:25:14;25;21;
69350;PMS7003;57106;51.446;-2.606;2022-12-18T05:27:39;22;18;
69350;PMS7003;57106;51.446;-2.606;2022-12-18T05:30:05;25;21;
69350;PMS7003;57106;51.446;-2.606;2022-12-18T05:32:31;21;17;
69350;PMS7003;57106;51.446;-2.606;2022-12-18T05:34:56;29;25;
69350;PMS7003;57106;51.446;-2.606;2022-12-18T05:37:22;17;16;
69350;PMS7003;57106;51.446;-2.606;2022-12-18T05:39:47;25;18;
69350;PMS7003;57106;51.446;-2.606;2022-12-18T05:42:12;24;18;
69350;PMS7003;57106;51.446;-2.606;2022-12-18T05:44:38;20;19;
69350;PMS7003;57106;51.446;-2.606;2022-12-18T05:47:03;28;22;
69350;PMS7003;57106;51.446;-2.606;2022-12-18T05:49:30;24;19;
69350;PMS7003;57106;51.446;-2.606;2022-12-18T05:51:54;23;22;
69350;PMS7003;57106;51.446;-2.606;2022-12-18T05:54:19;24;22;
69350;PMS7003;57106;51.446;-2.606;2022-12-18T05:56:45;21;17;
69350;PMS7003;57106;51.446;-2.606;2022-12-18T05:59:10;24;19;
69350;PMS7003;57106;51.446;-2.606;2022-12-18T06:01:36;22;21;
69350;PMS7003;57106;51.446;-2.606;2022-12-18T06:04:01;26;21;
69350;PMS7003;57106;51.446;-2.606;2022-12-18T06:06:27;23;19;
69350;PMS7003;57106;51.446;-2.606;2022-12-18T06:35:33;19;16;
69350;PMS7003;57106;51.446;-2.606;2022-12-18T06:37:58;22;20;
69350;PMS7003;57106;51.446;-2.606;2022-12-18T06:40:23;25;21;
69350;PMS7003;57106;51.446;-2.606;2022-12-18T06:42:48;24;19;
69350;PMS7003;57106;51.446;-2.606;2022-12-18T06:45:13;37;28;
69350;PMS7003;57106;51.446;-2.606;2022-12-18T06:47:39;31;28;
69350;PMS7003;57106;51.446;-2.606;2022-12-18T06:50:05;26;21;
69350;PMS7003;57106;51.446;-2.606;2022-12-18T06:52:31;24;20;
69350;PMS7003;57106;51.446;-2.606;2022-12-18T06:54:55;22;18;
69350;PMS7003;57106;51.446;-2.606;2022-12-18T06:57:21;21;18;
69350;PMS7003;57106;51.446;-2.606;2022-12-18T06:59:47;17;17;
69350;PMS7003;57106;51.446;-2.606;2022-12-18T07:02:12;24;17;
69350;PMS7003;57106;51.446;-2.606;2022-12-18T07:04:38;20;18;
69350;PMS7003;57106;51.446;-2.606;2022-12-18T07:07:03;24;19;
69350;PMS7003;57106;51.446;-2.606;2022-12-18T07:09:28;20;18;
69350;PMS7003;57106;51.446;-2.606;2022-12-18T07:11:53;25;16;
69350;PMS7003;57106;51.446;-2.606;2022-12-18T07:14:19;23;20;
69350;PMS7003;57106;51.446;-2.606;2022-12-18T07:16:45;20;20;
69350;PMS7003;57106;51.446;-2.606;2022-12-18T07:19:11;20;16;
69350;PMS7003;57106;51.446;-2.606;2022-12-18T07:21:36;22;17;
69350;PMS7003;57106;51.446;-2.606;2022-12-18T07:24:02;27;21;
69350;PMS7003;57106;51.446;-2.606;2022-12-18T07:26:26;27;22;
69350;PMS7003;57106;51.446;-2.606;2022-12-18T10:23:28;22;19;
69350;PMS7003;57106;51.446;-2.606;2022-12-18T10:25:53;23;20;
69350;PMS7003;57106;51.446;-2.606;2022-12-18T12:27:05;19;15;
69350;PMS7003;57106;51.446;-2.606;2022-12-18T13:32:33;14;12;
69350;PMS7003;57106;51.446;-2.606;2022-12-18T15:02:25;2;2;
69350;PMS7003;57106;51.446;-2.606;2022-12-18T15:07:16;3;3;
69350;PMS7003;57106;51.446;-2.606;2022-12-18T15:09:41;8;8;
69350;PMS7003;57106;51.446;-2.606;2022-12-18T15:14:34;4;2;
69350;PMS7003;57106;51.446;-2.606;2022-12-18T15:16:57;2;2;
69350;PMS7003;57106;51.446;-2.606;2022-12-18T15:19:25;2;2;
69350;PMS7003;57106;51.446;-2.606;2022-12-18T15:21:48;2;2;
69350;PMS7003;57106;51.446;-2.606;2022-12-18T15:26:39;6;4;
69350;PMS7003;57106;51.446;-2.606;2022-12-18T15:29:05;4;2;
69350;PMS7003;57106;51.446;-2.606;2022-12-18T15:31:36;2;2;
69350;PMS7003;57106;51.446;-2.606;2022-12-18T15:34:00;3;3;
69350;PMS7003;57106;51.446;-2.606;2022-12-18T15:36:22;5;3;
69350;PMS7003;57106;51.446;-2.606;2022-12-18T15:38:48;3;2;
69350;PMS7003;57106;51.446;-2.606;2022-12-18T15:41:13;5;3;
69350;PMS7003;57106;51.446;-2.606;2022-12-18T15:43:39;2;2;
69350;PMS7003;57106;51.446;-2.606;2022-12-18T15:46:05;4;4;
69350;PMS7003;57106;51.446;-2.606;2022-12-18T15:48:40;8;8;
69350;PMS7003;57106;51.446;-2.606;2022-12-18T15:50:56;7;7;
69350;PMS7003;57106;51.446;-2.606;2022-12-18T15:53:21;17;17;
69350;PMS7003;57106;51.446;-2.606;2022-12-18T15:55:46;18;14;
69350;PMS7003;57106;51.446;-2.606;2022-12-18T15:58:11;16;15;
69350;PMS7003;57106;51.446;-2.606;2022-12-18T16:00:38;8;8;
69350;PMS7003;57106;51.446;-2.606;2022-12-18T16:05:28;2;2;
69350;PMS7003;57106;51.446;-2.606;2022-12-18T16:07:53;4;4;
69350;PMS7003;57106;51.446;-2.606;2022-12-18T16:10:19;6;6;
69350;PMS7003;57106;51.446;-2.606;2022-12-18T16:12:44;5;5;
69350;PMS7003;57106;51.446;-2.606;2022-12-18T16:15:10;19;16;
69350;PMS7003;57106;51.446;-2.606;2022-12-18T16:17:36;6;6;
69350;PMS7003;57106;51.446;-2.606;2022-12-18T16:20:01;7;7;
69350;PMS7003;57106;51.446;-2.606;2022-12-18T16:22:28;7;7;
69350;PMS7003;57106;51.446;-2.606;2022-12-18T16:24:52;4;3;
69350;PMS7003;57106;51.446;-2.606;2022-12-18T16:27:18;5;4;
69350;PMS7003;57106;51.446;-2.606;2022-12-18T16:32:11;3;3;
69350;PMS7003;57106;51.446;-2.606;2022-12-18T16:39:31;4;4;
69350;PMS7003;57106;51.446;-2.606;2022-12-18T16:41:52;2;2;
69350;PMS7003;57106;51.446;-2.606;2022-12-18T16:44:17;3;3;
69350;PMS7003;57106;51.446;-2.606;2022-12-18T16:46:44;6;3;
69350;PMS7003;57106;51.446;-2.606;2022-12-18T16:49:08;3;3;
69350;PMS7003;57106;51.446;-2.606;2022-12-18T16:51:44;5;5;
69350;PMS7003;57106;51.446;-2.606;2022-12-18T16:53:59;5;4;
69350;PMS7003;57106;51.446;-2.606;2022-12-18T18:33:36;4;3;
69350;PMS7003;57106;51.446;-2.606;2022-12-18T18:35:53;8;7;
69350;PMS7003;57106;51.446;-2.606;2022-12-18T18:38:19;5;5;
69350;PMS7003;57106;51.446;-2.606;2022-12-18T19:21:59;2;2;
69350;PMS7003;57106;51.446;-2.606;2022-12-18T19:24:25;1;1;
69350;PMS7003;57106;51.446;-2.606;2022-12-18T19:26:50;2;2;
69350;PMS7003;57106;51.446;-2.606;2022-12-18T19:29:18;2;2;
69350;PMS7003;57106;51.446;-2.606;2022-12-18T19:31:41;1;1;
69350;PMS7003;57106;51.446;-2.606;2022-12-18T19:36:33;4;4;
69350;PMS7003;57106;51.446;-2.606;2022-12-18T19:38:59;14;14;
69350;PMS7003;57106;51.446;-2.606;2022-12-18T19:41:22;26;21;
69350;PMS7003;57106;51.446;-2.606;2022-12-18T19:46:14;42;35;
69350;PMS7003;57106;51.446;-2.606;2022-12-18T19:53:30;37;30;
69350;PMS7003;57106;51.446;-2.606;2022-12-18T19:55:55;29;23;
69350;PMS7003;57106;51.446;-2.606;2022-12-18T19:58:21;34;27;
69350;PMS7003;57106;51.446;-2.606;2022-12-18T20:03:12;16;14;
69350;PMS7003;57106;51.446;-2.606;2022-12-18T20:08:03;22;20;
69350;PMS7003;57106;51.446;-2.606;2022-12-18T20:12:54;12;10;
69350;PMS7003;57106;51.446;-2.606;2022-12-18T20:15:24;21;18;
69350;PMS7003;57106;51.446;-2.606;2022-12-18T20:17:44;16;13;
69350;PMS7003;57106;51.446;-2.606;2022-12-18T20:20:15;20;17;
69350;PMS7003;57106;51.446;-2.606;2022-12-18T20:22:35;6;4;
69350;PMS7003;57106;51.446;-2.606;2022-12-18T20:25:01;8;7;
69350;PMS7003;57106;51.446;-2.606;2022-12-18T20:41:59;7;7;
69350;PMS7003;57106;51.446;-2.606;2022-12-18T20:44:24;8;8;
69350;PMS7003;57106;51.446;-2.606;2022-12-18T20:49:15;9;8;
69350;PMS7003;57106;51.446;-2.606;2022-12-18T20:51:41;4;4;
69350;PMS7003;57106;51.446;-2.606;2022-12-18T20:54:11;9;9;
69350;PMS7003;57106;51.446;-2.606;2022-12-18T20:56:32;7;6;
69350;PMS7003;57106;51.446;-2.606;2022-12-18T20:58:58;5;4;
69350;PMS7003;57106;51.446;-2.606;2022-12-18T21:01:31;5;5;
69350;PMS7003;57106;51.446;-2.606;2022-12-18T21:03:49;6;6;
69350;PMS7003;57106;51.446;-2.606;2022-12-18T21:06:24;8;7;
69350;PMS7003;57106;51.446;-2.606;2022-12-18T21:25:38;3;3;
69350;PMS7003;57106;51.446;-2.606;2022-12-18T21:37:47;3;3;
69350;PMS7003;57106;51.446;-2.606;2022-12-18T21:40:11;6;6;
69350;PMS7003;57106;51.446;-2.606;2022-12-18T21:42:39;3;3;
69350;PMS7003;57106;51.446;-2.606;2022-12-18T21:45:02;2;2;
69350;PMS7003;57106;51.446;-2.606;2022-12-18T21:47:30;6;5;
69350;PMS7003;57106;51.446;-2.606;2022-12-18T21:54:43;5;4;
69350;PMS7003;57106;51.446;-2.606;2022-12-18T21:57:14;2;2;
69350;PMS7003;57106;51.446;-2.606;2022-12-18T21:59:36;4;1;
69350;PMS7003;57106;51.446;-2.606;2022-12-18T22:02:00;3;2;
69350;PMS7003;57106;51.446;-2.606;2022-12-18T22:04:25;18;18;
69350;PMS7003;57106;51.446;-2.606;2022-12-18T22:06:51;36;36;
69350;PMS7003;57106;51.446;-2.606;2022-12-18T22:09:17;31;30;
69350;PMS7003;57106;51.446;-2.606;2022-12-18T22:11:42;67;55;
69350;PMS7003;57106;51.446;-2.606;2022-12-18T22:14:08;31;25;
69350;PMS7003;57106;51.446;-2.606;2022-12-18T22:21:25;5;4;
69350;PMS7003;57106;51.446;-2.606;2022-12-18T22:23:52;1;0;
69350;PMS7003;57106;51.446;-2.606;2022-12-18T22:33:32;0;0;
69350;PMS7003;57106;51.446;-2.606;2022-12-18T22:36:03;1;0;
69350;PMS7003;57106;51.446;-2.606;2022-12-18T22:38:23;4;4;
69350;PMS7003;57106;51.446;-2.606;2022-12-18T22:40:48;4;4;
69350;PMS7003;57106;51.446;-2.606;2022-12-18T22:43:14;1;1;
69350;PMS7003;57106;51.446;-2.606;2022-12-18T22:55:23;0;0;
69350;PMS7003;57106;51.446;-2.606;2022-12-18T23:02:37;0;0;
69350;PMS7003;57106;51.446;-2.606;2022-12-18T23:07:29;2;1;
69350;PMS7003;57106;51.446;-2.606;2022-12-18T23:09:55;0;0;
69350;PMS7003;57106;51.446;-2.606;2022-12-18T23:12:19;0;0;
69350;PMS7003;57106;51.446;-2.606;2022-12-18T23:15:00;0;0;
69350;PMS7003;57106;51.446;-2.606;2022-12-18T23:19:36;0;0;
69350;PMS7003;57106;51.446;-2.606;2022-12-18T23:34:12;0;0;
69350;PMS7003;57106;51.446;-2.606;2022-12-18T23:39:00;0;0;
69350;PMS7003;57106;51.446;-2.606;2022-12-18T23:48:47;0;0;
69350;PMS7003;57106;51.446;-2.606;2022-12-18T23:51:08;0;0;
69350;PMS7003;57106;51.446;-2.606;2022-12-18T23:53:33;0;0;
69350;PMS7003;57106;51.446;-2.606;2022-12-18T23:56:00;0;0;
